Time;durP1;ratioP1;P1;durP2;ratioP2;P2;SDS_P1;SDS_P2;PMS_P1;PMS_P2;Temp;Humidity;BMP_temperature;BMP_pressure;BME280_temperature;BME280_humidity;BME280_pressure;Samples;Min_cycle;Max_cycle;Signal;HPM_P1;HPM_P2
2023/11/08 00:00:30;;;;;;;39.90;19.88;;;10.80;99.90;;;;;;4981087;28;20061;-76
2023/11/08 00:02:59;;;;;;;40.83;20.27;;;10.80;99.90;;;;;;5007868;28;20060;-76
2023/11/08 00:05:29;;;;;;;43.53;19.75;;;10.80;99.90;;;;;;4992887;28;20187;-78
2023/11/08 00:07:57;;;;;;;47.97;21.13;;;10.80;99.90;;;;;;4979320;28;20135;-78
2023/11/08 00:10:26;;;;;;;40.22;19.83;;;10.90;99.90;;;;;;4996991;28;20138;-77
2023/11/08 00:12:58;;;;;;;40.35;20.10;;;10.80;99.90;;;;;;4978757;28;20045;-78
2023/11/08 00:15:26;;;;;;;43.28;18.67;;;10.80;99.90;;;;;;4979966;28;20421;-78
2023/11/08 00:17:55;;;;;;;40.17;19.55;;;10.90;99.90;;;;;;4997262;28;20813;-78
2023/11/08 00:20:24;;;;;;;41.05;18.77;;;10.80;99.90;;;;;;4979173;28;20060;-77
2023/11/08 00:22:52;;;;;;;44.72;19.45;;;10.80;99.90;;;;;;4976475;28;20049;-77
2023/11/08 00:25:21;;;;;;;47.72;20.13;;;10.80;99.90;;;;;;4996604;28;20069;-77
2023/11/08 00:27:50;;;;;;;40.83;20.33;;;10.80;99.90;;;;;;5011287;28;20045;-77
2023/11/08 00:30:20;;;;;;;42.22;18.60;;;10.80;99.90;;;;;;4998375;28;20813;-77
2023/11/08 00:32:50;;;;;;;40.97;18.48;;;10.80;99.90;;;;;;5012575;28;20070;-78
2023/11/08 00:35:18;;;;;;;36.85;18.52;;;10.80;99.90;;;;;;5014275;28;20130;-78
2023/11/08 00:37:47;;;;;;;44.20;19.55;;;10.80;99.90;;;;;;5013386;28;20890;-78
2023/11/08 00:40:16;;;;;;;41.85;18.67;;;10.70;99.90;;;;;;5000705;28;20061;-77
2023/11/08 00:42:44;;;;;;;37.92;19.00;;;10.70;99.90;;;;;;5013533;28;20103;-77
2023/11/08 00:45:13;;;;;;;37.30;19.20;;;10.80;99.90;;;;;;5012182;28;23430;-77
2023/11/08 00:47:43;;;;;;;40.53;19.35;;;10.80;99.90;;;;;;5012723;28;20056;-77
2023/11/08 00:50:12;;;;;;;37.08;19.15;;;10.80;99.90;;;;;;5012559;28;20215;-77
2023/11/08 00:52:41;;;;;;;36.22;18.42;;;11.20;99.90;;;;;;4994367;28;20145;-77
2023/11/08 00:55:09;;;;;;;46.55;19.58;;;10.80;99.90;;;;;;5019577;28;20267;-78
2023/11/08 00:57:38;;;;;;;38.80;19.40;;;10.80;99.90;;;;;;5000091;28;20091;-78
2023/11/08 01:00:08;;;;;;;44.70;18.48;;;10.80;99.90;;;;;;5008697;28;20057;-78
2023/11/08 01:02:37;;;;;;;42.80;19.40;;;10.80;99.90;;;;;;4998985;28;20179;-78
2023/11/08 01:05:10;;;;;;;40.15;18.38;;;10.80;99.90;;;;;;5001948;28;20049;-77
2023/11/08 01:07:39;;;;;;;41.55;18.13;;;10.80;99.90;;;;;;5014144;28;20073;-77
2023/11/08 01:10:08;;;;;;;46.92;20.52;;;10.80;99.90;;;;;;5011684;28;20163;-77
2023/11/08 01:12:37;;;;;;;41.33;18.45;;;10.80;99.90;;;;;;5022902;28;20053;-78
2023/11/08 01:15:08;;;;;;;46.67;19.83;;;10.80;99.90;;;;;;4997517;28;20097;-76
2023/11/08 01:17:37;;;;;;;45.35;19.20;;;10.80;99.90;;;;;;5011391;28;20060;-76
2023/11/08 01:20:08;;;;;;;37.30;17.98;;;10.80;99.90;;;;;;4983490;28;20046;-75
2023/11/08 01:22:37;;;;;;;41.20;17.70;;;10.80;99.90;;;;;;4994718;28;20098;-76
2023/11/08 01:25:07;;;;;;;37.17;17.17;;;10.80;99.90;;;;;;5000644;28;20188;-75
2023/11/08 01:27:37;;;;;;;44.80;19.15;;;10.80;99.90;;;;;;4990384;28;20140;-76
2023/11/08 01:30:07;;;;;;;44.58;19.65;;;10.80;99.90;;;;;;4987357;28;20835;-75
2023/11/08 01:32:35;;;;;;;37.88;18.33;;;10.80;99.90;;;;;;4990616;28;20072;-75
2023/11/08 01:35:04;;;;;;;43.70;18.90;;;10.80;99.90;;;;;;4994589;28;20542;-76
2023/11/08 01:37:34;;;;;;;39.20;17.73;;;10.80;99.90;;;;;;4983935;28;20088;-76
2023/11/08 01:40:06;;;;;;;39.95;17.95;;;10.80;99.90;;;;;;4983058;28;20064;-75
2023/11/08 01:42:34;;;;;;;39.60;18.25;;;10.80;99.90;;;;;;5014829;28;20119;-75
2023/11/08 01:45:04;;;;;;;33.22;16.67;;;10.80;99.90;;;;;;4989515;28;20064;-75
2023/11/08 01:47:35;;;;;;;39.10;17.60;;;10.80;99.90;;;;;;4987018;28;22360;-76
2023/11/08 01:50:04;;;;;;;41.20;17.75;;;10.80;99.90;;;;;;5006265;28;20064;-76
2023/11/08 01:52:34;;;;;;;37.85;17.30;;;10.80;99.90;;;;;;4991601;28;20068;-75
2023/11/08 01:55:06;;;;;;;38.75;18.13;;;10.80;99.90;;;;;;4988950;28;20975;-75
2023/11/08 01:57:36;;;;;;;35.88;17.67;;;10.90;99.90;;;;;;4987743;28;20270;-76
2023/11/08 02:00:07;;;;;;;39.25;17.90;;;10.80;99.90;;;;;;4990738;28;20092;-75
2023/11/08 02:02:44;;;;;;;33.65;16.17;;;10.80;99.90;;;;;;4987965;28;20057;-75
2023/11/08 02:05:13;;;;;;;32.30;15.65;;;10.80;99.90;;;;;;4987029;28;20187;-76
2023/11/08 02:07:42;;;;;;;29.83;15.77;;;10.80;99.90;;;;;;5004759;28;20053;-76
2023/11/08 02:10:12;;;;;;;34.70;16.75;;;10.80;99.90;;;;;;4990961;28;21999;-75
2023/11/08 02:12:43;;;;;;;28.58;15.05;;;10.80;99.90;;;;;;4971280;28;20463;-76
2023/11/08 02:15:15;;;;;;;36.25;16.50;;;10.80;99.90;;;;;;4978348;28;20104;-76
2023/11/08 02:17:44;;;;;;;29.35;15.13;;;10.80;99.90;;;;;;4987576;28;20154;-76
2023/11/08 02:20:13;;;;;;;29.35;14.88;;;10.90;99.90;;;;;;4974595;28;20495;-76
2023/11/08 02:22:42;;;;;;;29.95;14.23;;;10.80;99.90;;;;;;4973372;28;20049;-76
2023/11/08 02:25:13;;;;;;;28.52;13.90;;;10.80;99.90;;;;;;4970372;28;20089;-76
2023/11/08 02:27:46;;;;;;;30.10;14.00;;;10.80;99.90;;;;;;4986606;28;20562;-76
2023/11/08 02:30:14;;;;;;;25.05;12.68;;;10.80;99.90;;;;;;4986081;28;20075;-77
2023/11/08 02:32:43;;;;;;;27.88;12.40;;;10.80;99.90;;;;;;4988968;28;20118;-76
2023/11/08 02:35:12;;;;;;;21.60;10.85;;;10.70;99.90;;;;;;4972610;28;20058;-76
2023/11/08 02:37:41;;;;;;;19.25;8.98;;;10.70;99.90;;;;;;4974686;28;20050;-76
2023/11/08 02:40:12;;;;;;;19.30;10.52;;;10.70;99.90;;;;;;4991901;28;20152;-75
2023/11/08 02:42:41;;;;;;;13.25;6.85;;;10.60;99.90;;;;;;4979779;28;20050;-76
2023/11/08 02:45:10;;;;;;;11.27;5.05;;;10.40;99.90;;;;;;4998616;28;20122;-76
2023/11/08 02:47:39;;;;;;;10.48;5.70;;;10.30;99.90;;;;;;5012478;28;20113;-76
2023/11/08 02:50:10;;;;;;;10.43;4.78;;;10.20;99.90;;;;;;5002116;28;20088;-75
2023/11/08 02:52:39;;;;;;;10.25;4.55;;;10.20;99.90;;;;;;4992007;28;22647;-76
2023/11/08 02:55:11;;;;;;;6.82;3.60;;;10.10;99.90;;;;;;4990852;28;20283;-76
2023/11/08 02:57:42;;;;;;;8.82;3.65;;;10.10;99.90;;;;;;4996878;28;20071;-76
2023/11/08 03:00:12;;;;;;;6.45;2.95;;;10.00;99.90;;;;;;5006614;28;20061;-76
2023/11/08 03:02:42;;;;;;;5.97;2.70;;;10.00;99.90;;;;;;5004983;28;20815;-75
2023/11/08 03:05:10;;;;;;;7.50;3.47;;;10.00;99.90;;;;;;5004236;28;20033;-75
2023/11/08 03:07:39;;;;;;;8.23;3.53;;;9.90;99.90;;;;;;5011608;28;20524;-75
2023/11/08 03:10:09;;;;;;;8.82;3.33;;;9.80;99.90;;;;;;5007581;28;20049;-76
2023/11/08 03:12:38;;;;;;;7.43;2.90;;;9.80;99.90;;;;;;4997684;28;20068;-76
2023/11/08 03:15:12;;;;;;;6.45;2.85;;;9.70;99.90;;;;;;5007609;28;20182;-75
2023/11/08 03:17:43;;;;;;;6.43;3.00;;;9.70;99.90;;;;;;5006800;28;20125;-75
2023/11/08 03:20:13;;;;;;;7.15;2.97;;;9.60;99.90;;;;;;5005837;28;20041;-75
2023/11/08 03:22:42;;;;;;;7.05;3.03;;;9.60;99.90;;;;;;4990825;28;20640;-75
2023/11/08 03:25:13;;;;;;;5.65;2.65;;;9.50;99.90;;;;;;4993198;28;20196;-75
2023/11/08 03:27:42;;;;;;;6.00;3.03;;;9.50;99.90;;;;;;5022364;28;20515;-76
2023/11/08 03:30:14;;;;;;;6.72;2.53;;;9.50;99.90;;;;;;4991676;28;20857;-75
2023/11/08 03:32:44;;;;;;;6.63;2.30;;;9.40;99.90;;;;;;5020588;28;20061;-74
2023/11/08 03:35:13;;;;;;;5.38;1.77;;;9.50;99.90;;;;;;5001250;28;20169;-77
2023/11/08 03:37:44;;;;;;;2.85;1.00;;;9.40;99.90;;;;;;4996570;28;20054;-77
2023/11/08 03:40:15;;;;;;;2.35;0.70;;;9.40;99.90;;;;;;5012854;28;20632;-76
2023/11/08 03:42:44;;;;;;;2.67;0.60;;;9.40;99.90;;;;;;5009390;28;20528;-74
2023/11/08 03:45:15;;;;;;;1.27;0.45;;;9.40;99.90;;;;;;5006530;28;20041;-75
2023/11/08 03:47:43;;;;;;;1.10;0.47;;;9.40;99.90;;;;;;5018808;28;20064;-75
2023/11/08 03:50:12;;;;;;;2.10;0.38;;;9.40;99.90;;;;;;5005588;28;20045;-75
2023/11/08 03:52:41;;;;;;;0.77;0.20;;;9.40;99.90;;;;;;4997547;28;20072;-75
2023/11/08 03:55:09;;;;;;;1.10;0.32;;;9.40;99.90;;;;;;4990683;28;20072;-75
2023/11/08 03:57:38;;;;;;;0.98;0.30;;;9.30;99.90;;;;;;4992348;28;22694;-75
2023/11/08 04:00:08;;;;;;;1.20;0.40;;;9.30;99.90;;;;;;5008444;28;20144;-76
2023/11/08 04:02:40;;;;;;;1.50;0.85;;;9.30;99.90;;;;;;5003124;28;20512;-76
2023/11/08 04:05:09;;;;;;;1.83;0.52;;;9.30;99.90;;;;;;5003130;28;20050;-75
2023/11/08 04:07:37;;;;;;;2.03;0.50;;;9.40;99.90;;;;;;5000272;28;20034;-74
2023/11/08 04:10:07;;;;;;;2.47;0.60;;;9.30;99.90;;;;;;5005399;28;20050;-75
2023/11/08 04:12:35;;;;;;;3.08;0.50;;;9.30;99.90;;;;;;4991888;28;20053;-75
2023/11/08 04:15:04;;;;;;;4.00;0.57;;;9.40;99.90;;;;;;4993389;28;20213;-75
2023/11/08 04:17:33;;;;;;;1.73;0.60;;;9.30;99.90;;;;;;4989051;28;20054;-75
2023/11/08 04:20:03;;;;;;;1.80;0.68;;;9.30;99.90;;;;;;4991193;28;20111;-75
2023/11/08 04:22:31;;;;;;;2.03;0.70;;;9.30;99.90;;;;;;5005218;28;22224;-75
2023/11/08 04:25:00;;;;;;;2.78;0.73;;;9.30;99.90;;;;;;5006829;28;20057;-76
2023/11/08 04:27:28;;;;;;;1.50;0.70;;;9.30;99.90;;;;;;5024112;28;20559;-75
2023/11/08 04:29:57;;;;;;;2.72;0.68;;;9.30;99.90;;;;;;5007815;28;20057;-75
2023/11/08 04:32:25;;;;;;;2.08;0.70;;;9.30;99.90;;;;;;5005685;28;20041;-75
2023/11/08 04:34:54;;;;;;;1.33;0.60;;;9.30;99.90;;;;;;4996760;28;20180;-75
2023/11/08 04:37:23;;;;;;;1.88;0.60;;;9.40;99.90;;;;;;5010741;28;20127;-74
2023/11/08 04:39:52;;;;;;;1.63;0.80;;;9.40;99.90;;;;;;4993576;28;20057;-76
2023/11/08 04:42:20;;;;;;;3.28;1.15;;;9.40;99.90;;;;;;5012668;28;20156;-75
2023/11/08 04:44:49;;;;;;;5.68;1.30;;;9.30;99.90;;;;;;5017903;28;20920;-75
2023/11/08 04:47:19;;;;;;;1.98;1.00;;;9.30;99.90;;;;;;4988473;28;20103;-75
2023/11/08 04:49:50;;;;;;;2.72;1.02;;;9.30;99.90;;;;;;4989279;28;20558;-75
2023/11/08 04:52:19;;;;;;;3.30;1.40;;;9.30;99.90;;;;;;4990034;28;22494;-75
2023/11/08 04:54:49;;;;;;;3.95;0.82;;;9.30;99.90;;;;;;4993679;28;20148;-75
2023/11/08 04:57:23;;;;;;;2.65;0.82;;;9.30;99.90;;;;;;5016294;28;20496;-75
2023/11/08 04:59:52;;;;;;;2.42;1.10;;;9.30;99.90;;;;;;4998921;28;20053;-76
2023/11/08 05:02:20;;;;;;;2.08;0.77;;;9.30;99.90;;;;;;5005096;28;20535;-75
2023/11/08 05:04:49;;;;;;;3.72;1.42;;;9.20;99.90;;;;;;4993200;28;20107;-76
2023/11/08 05:07:19;;;;;;;1.88;0.80;;;9.20;99.90;;;;;;4990560;28;20068;-75
2023/11/08 05:09:50;;;;;;;2.28;1.05;;;9.20;99.90;;;;;;5008087;28;20060;-75
2023/11/08 05:12:20;;;;;;;3.30;1.08;;;9.20;99.90;;;;;;4991830;28;20049;-75
2023/11/08 05:14:49;;;;;;;2.35;1.00;;;9.20;99.90;;;;;;4996687;28;20183;-75
2023/11/08 05:17:17;;;;;;;5.22;1.38;;;9.20;99.90;;;;;;4995457;28;20049;-75
2023/11/08 05:19:46;;;;;;;2.72;1.48;;;9.20;99.90;;;;;;4989961;28;20056;-75
2023/11/08 05:22:14;;;;;;;2.58;1.20;;;9.10;99.90;;;;;;4993587;28;20191;-75
2023/11/08 05:24:43;;;;;;;2.45;1.20;;;9.20;99.90;;;;;;4990086;28;20050;-75
2023/11/08 05:27:17;;;;;;;3.63;1.70;;;9.20;99.90;;;;;;4996980;28;20049;-76
2023/11/08 05:29:45;;;;;;;4.03;1.52;;;9.20;99.90;;;;;;4990071;28;20497;-75
2023/11/08 05:32:17;;;;;;;4.78;2.55;;;9.10;99.90;;;;;;5009486;28;20140;-75
2023/11/08 05:34:46;;;;;;;4.38;1.90;;;9.20;99.90;;;;;;4991969;28;20072;-75
2023/11/08 05:37:14;;;;;;;5.32;2.08;;;9.20;99.90;;;;;;4995584;28;20038;-75
2023/11/08 05:39:44;;;;;;;3.83;2.13;;;9.30;99.90;;;;;;5007668;28;20325;-75
2023/11/08 05:42:15;;;;;;;4.13;2.10;;;9.20;99.90;;;;;;5015156;28;20065;-74
2023/11/08 05:44:43;;;;;;;3.03;1.60;;;9.20;99.90;;;;;;5018008;28;20060;-73
2023/11/08 05:47:12;;;;;;;5.32;1.88;;;9.20;99.90;;;;;;4990245;28;20041;-74
2023/11/08 05:49:40;;;;;;;4.32;2.00;;;9.20;99.90;;;;;;4989174;28;20702;-75
2023/11/08 05:52:09;;;;;;;4.03;2.20;;;9.20;99.90;;;;;;5003684;28;20046;-75
2023/11/08 05:54:38;;;;;;;2.53;1.30;;;9.20;99.90;;;;;;4986892;28;20647;-74
2023/11/08 05:57:06;;;;;;;4.28;2.28;;;9.20;99.90;;;;;;4987362;28;20041;-74
2023/11/08 05:59:37;;;;;;;4.85;1.38;;;9.20;99.90;;;;;;4974675;28;20050;-74
2023/11/08 06:02:05;;;;;;;3.58;1.05;;;9.20;99.90;;;;;;4973632;28;20069;-75
2023/11/08 06:04:34;;;;;;;2.65;1.30;;;9.20;99.90;;;;;;4976642;28;20080;-74
2023/11/08 06:07:03;;;;;;;2.22;1.27;;;9.20;99.90;;;;;;4988549;28;20172;-75
2023/11/08 06:09:31;;;;;;;3.17;1.23;;;9.20;99.90;;;;;;4983597;28;20145;-76
2023/11/08 06:12:00;;;;;;;2.28;1.10;;;9.20;99.90;;;;;;4975631;28;20500;-75
2023/11/08 06:14:29;;;;;;;3.63;1.00;;;9.20;99.90;;;;;;4975847;28;20424;-76
2023/11/08 06:16:58;;;;;;;3.28;1.67;;;9.30;99.90;;;;;;4983281;28;20041;-77
2023/11/08 06:19:28;;;;;;;3.85;1.58;;;9.30;99.90;;;;;;4981519;28;20211;-75
2023/11/08 06:21:56;;;;;;;17.15;7.15;;;9.30;99.90;;;;;;4992012;28;20120;-75
2023/11/08 06:24:25;;;;;;;79.75;42.20;;;9.30;99.90;;;;;;4993671;28;20713;-76
2023/11/08 06:26:54;;;;;;;4.35;2.42;;;9.30;99.90;;;;;;4992895;28;20171;-76
2023/11/08 06:29:22;;;;;;;4.47;2.58;;;9.20;99.90;;;;;;4978301;28;20149;-76
2023/11/08 06:31:50;;;;;;;4.13;2.00;;;9.20;99.90;;;;;;4980441;28;20042;-77
2023/11/08 06:34:20;;;;;;;4.38;2.30;;;9.30;99.90;;;;;;4994084;28;20065;-76
2023/11/08 06:36:49;;;;;;;4.65;1.88;;;9.30;99.90;;;;;;4990297;28;20061;-75
2023/11/08 06:39:18;;;;;;;3.30;2.30;;;9.30;99.90;;;;;;4980948;28;20053;-77
2023/11/08 06:41:46;;;;;;;3.38;2.25;;;9.30;99.90;;;;;;5009240;28;20162;-76
2023/11/08 06:44:17;;;;;;;3.35;2.33;;;9.40;99.90;;;;;;4994591;28;20049;-76
2023/11/08 06:46:45;;;;;;;3.25;1.90;;;9.50;99.90;;;;;;4994602;28;20061;-76
2023/11/08 06:49:14;;;;;;;4.47;2.47;;;9.60;99.90;;;;;;5003231;28;20060;-77
2023/11/08 06:51:44;;;;;;;3.50;2.40;;;9.70;99.90;;;;;;5015946;28;20432;-77
2023/11/08 06:54:13;;;;;;;4.68;2.05;;;9.80;99.90;;;;;;4992332;28;20188;-75
2023/11/08 06:56:42;;;;;;;4.82;1.50;;;9.90;99.90;;;;;;4996641;28;20053;-76
2023/11/08 06:59:10;;;;;;;3.00;1.52;;;10.00;99.90;;;;;;4985904;28;20424;-75
2023/11/08 07:01:39;;;;;;;2.92;1.67;;;10.00;99.90;;;;;;4982852;28;20041;-76
2023/11/08 07:04:07;;;;;;;4.07;1.30;;;10.00;99.90;;;;;;4990500;28;20076;-76
2023/11/08 07:06:36;;;;;;;2.28;1.20;;;10.00;99.90;;;;;;5007556;28;20493;-77
2023/11/08 07:09:07;;;;;;;5.35;1.48;;;9.90;99.90;;;;;;4996702;28;20053;-77
2023/11/08 07:11:35;;;;;;;4.32;1.50;;;9.90;99.90;;;;;;5001223;28;20050;-78
2023/11/08 07:14:04;;;;;;;2.63;1.60;;;9.90;99.90;;;;;;5024127;28;20060;-77
2023/11/08 07:16:32;;;;;;;4.53;1.92;;;9.80;99.90;;;;;;5022993;28;20076;-76
2023/11/08 07:19:01;;;;;;;3.42;1.88;;;9.80;99.90;;;;;;4994495;28;22347;-77
2023/11/08 07:21:29;;;;;;;4.95;2.25;;;9.80;99.90;;;;;;4992702;28;20046;-76
2023/11/08 07:23:58;;;;;;;3.67;2.10;;;9.80;99.90;;;;;;4995900;28;20163;-77
2023/11/08 07:26:28;;;;;;;3.13;2.08;;;9.80;99.90;;;;;;4996601;28;22229;-77
2023/11/08 07:28:58;;;;;;;3.58;2.03;;;9.90;99.90;;;;;;5006861;28;20076;-80
2023/11/08 07:31:27;;;;;;;3.42;1.45;;;10.00;99.90;;;;;;4995894;28;20163;-77
2023/11/08 07:33:55;;;;;;;4.18;1.80;;;10.00;99.90;;;;;;5005367;28;20081;-77
2023/11/08 07:36:24;;;;;;;3.17;1.40;;;10.10;99.90;;;;;;4984883;28;20050;-75
2023/11/08 07:38:53;;;;;;;3.05;1.27;;;10.10;99.90;;;;;;4984888;28;22130;-78
2023/11/08 07:41:22;;;;;;;2.28;1.13;;;10.20;99.90;;;;;;5003157;28;20053;-77
2023/11/08 07:43:52;;;;;;;4.03;1.10;;;10.10;99.90;;;;;;5026626;28;20159;-75
2023/11/08 07:46:20;;;;;;;4.32;1.20;;;10.00;99.90;;;;;;5029851;28;20805;-75
2023/11/08 07:48:48;;;;;;;2.42;0.90;;;10.10;99.90;;;;;;4991034;28;20030;-76
2023/11/08 07:51:17;;;;;;;1.42;0.73;;;10.10;99.90;;;;;;4986059;28;20708;-75
2023/11/08 07:53:45;;;;;;;1.80;0.85;;;10.10;99.90;;;;;;5004534;28;20121;-77
2023/11/08 07:56:14;;;;;;;2.28;0.70;;;10.20;99.90;;;;;;5007336;28;20042;-76
2023/11/08 07:58:42;;;;;;;3.60;0.77;;;10.20;99.90;;;;;;4981698;28;22541;-76
2023/11/08 08:01:12;;;;;;;1.42;0.70;;;10.20;99.90;;;;;;4998429;28;20053;-75
2023/11/08 08:03:42;;;;;;;1.00;0.50;;;10.30;99.90;;;;;;4990164;28;20038;-77
2023/11/08 08:06:11;;;;;;;2.22;0.75;;;10.30;99.90;;;;;;4990436;28;20056;-77
2023/11/08 08:08:39;;;;;;;3.45;0.63;;;10.30;99.90;;;;;;5002163;28;20053;-76
2023/11/08 08:11:10;;;;;;;1.60;0.40;;;10.40;99.90;;;;;;4998270;28;20499;-77
2023/11/08 08:13:45;;;;;;;2.05;0.50;;;10.40;99.90;;;;;;4997425;28;20065;-77
2023/11/08 08:16:19;;;;;;;1.85;0.28;;;10.50;99.90;;;;;;4999624;28;20152;-75
2023/11/08 08:18:48;;;;;;;2.10;0.30;;;10.50;99.90;;;;;;4982100;28;20055;-74
2023/11/08 08:21:17;;;;;;;2.33;0.30;;;10.50;99.90;;;;;;4983540;28;20544;-72
2023/11/08 08:23:48;;;;;;;4.30;0.73;;;10.50;99.90;;;;;;4939912;28;20452;-76
2023/11/08 08:26:29;;;;;;;3.88;0.40;;;10.50;99.90;;;;;;4990241;28;20106;-77
2023/11/08 08:29:06;;;;;;;2.80;0.40;;;10.60;99.90;;;;;;5010023;28;20053;-76
2023/11/08 08:31:38;;;;;;;2.13;0.30;;;10.60;99.90;;;;;;4986340;28;20140;-76
2023/11/08 08:34:10;;;;;;;1.58;0.20;;;10.60;99.90;;;;;;4994720;28;20049;-76
2023/11/08 08:36:50;;;;;;;2.40;0.35;;;10.70;99.90;;;;;;4984020;28;20546;-74
2023/11/08 08:39:24;;;;;;;2.03;0.30;;;10.70;99.90;;;;;;4985591;28;20046;-77
2023/11/08 08:41:53;;;;;;;2.30;0.32;;;10.70;99.90;;;;;;4991882;28;20535;-75
2023/11/08 08:44:23;;;;;;;1.95;0.20;;;10.80;99.90;;;;;;5017706;28;20237;-76
2023/11/08 08:46:54;;;;;;;0.85;0.20;;;10.80;99.90;;;;;;5014867;28;20049;-75
2023/11/08 08:49:22;;;;;;;2.17;0.38;;;10.80;99.90;;;;;;5001487;28;20037;-75
2023/11/08 08:51:51;;;;;;;1.30;0.25;;;10.80;99.90;;;;;;4986354;28;20049;-75
2023/11/08 08:54:20;;;;;;;1.77;0.20;;;10.90;99.90;;;;;;4992502;28;20054;-75
2023/11/08 08:56:53;;;;;;;3.15;0.40;;;10.90;99.80;;;;;;4985933;28;20049;-76
2023/11/08 08:59:22;;;;;;;1.40;0.30;;;10.90;99.20;;;;;;4983186;28;20052;-75
2023/11/08 09:01:54;;;;;;;1.15;0.20;;;10.90;99.60;;;;;;4981624;28;20138;-75
2023/11/08 09:04:23;;;;;;;1.35;0.20;;;11.00;99.60;;;;;;4995991;28;22155;-77
2023/11/08 09:06:51;;;;;;;1.48;0.30;;;11.10;99.20;;;;;;4983302;28;20737;-75
2023/11/08 09:09:21;;;;;;;2.33;0.30;;;11.10;98.80;;;;;;4978576;28;20441;-77
2023/11/08 09:11:51;;;;;;;1.77;0.40;;;11.20;99.80;;;;;;4995263;28;20187;-77
2023/11/08 09:14:20;;;;;;;0.88;0.20;;;11.30;99.50;;;;;;4983279;28;22824;-76
2023/11/08 09:16:48;;;;;;;2.50;0.20;;;11.30;98.80;;;;;;4998064;28;20053;-76
2023/11/08 09:19:18;;;;;;;0.80;0.10;;;11.30;98.70;;;;;;4982499;28;20046;-75
2023/11/08 09:21:47;;;;;;;0.85;0.20;;;11.30;98.20;;;;;;4996686;28;20056;-76
2023/11/08 09:24:16;;;;;;;1.35;0.30;;;11.40;98.50;;;;;;5016258;28;20053;-75
2023/11/08 09:26:47;;;;;;;1.95;0.20;;;11.40;98.00;;;;;;4990876;28;20448;-77
2023/11/08 09:29:16;;;;;;;0.63;0.20;;;11.50;98.10;;;;;;4993770;28;20065;-78
2023/11/08 09:31:47;;;;;;;0.93;0.20;;;11.50;98.00;;;;;;5010455;28;20052;-78
2023/11/08 09:34:15;;;;;;;1.77;0.30;;;11.50;98.30;;;;;;4995967;28;20886;-77
2023/11/08 09:36:46;;;;;;;3.33;0.40;;;11.60;98.00;;;;;;4994161;28;20085;-79
2023/11/08 09:39:16;;;;;;;2.50;0.38;;;11.50;97.80;;;;;;4994157;28;20054;-79
2023/11/08 09:41:44;;;;;;;1.80;0.40;;;11.50;98.70;;;;;;5006209;28;20052;-76
2023/11/08 09:44:15;;;;;;;1.70;0.50;;;11.60;98.30;;;;;;5002325;28;20041;-76
2023/11/08 09:46:44;;;;;;;2.22;0.30;;;11.50;97.80;;;;;;4999074;28;20057;-76
2023/11/08 09:49:12;;;;;;;2.60;0.20;;;11.50;98.60;;;;;;5028004;28;20087;-77
2023/11/08 09:51:41;;;;;;;2.08;0.30;;;11.60;97.60;;;;;;5004841;28;20057;-76
2023/11/08 09:54:14;;;;;;;3.65;0.30;;;11.70;97.50;;;;;;5010995;28;20099;-78
2023/11/08 09:56:44;;;;;;;2.38;0.30;;;11.70;97.40;;;;;;5002051;28;20061;-79
2023/11/08 09:59:15;;;;;;;2.70;0.30;;;11.50;97.10;;;;;;5042275;28;20041;-77
2023/11/08 10:01:45;;;;;;;1.75;0.73;;;11.50;97.50;;;;;;5045232;28;20053;-76
2023/11/08 10:04:15;;;;;;;1.33;0.20;;;11.40;97.20;;;;;;4988525;28;20057;-79
2023/11/08 10:06:51;;;;;;;4.38;1.30;;;11.30;96.70;;;;;;4993410;28;20056;-78
2023/11/08 10:09:31;;;;;;;3.60;0.57;;;11.40;96.80;;;;;;5028449;28;20046;-75
2023/11/08 10:12:00;;;;;;;3.05;0.55;;;11.50;96.70;;;;;;4996265;28;20211;-77
2023/11/08 10:14:32;;;;;;;1.67;0.30;;;11.50;95.80;;;;;;4995813;28;20057;-75
2023/11/08 10:17:03;;;;;;;2.15;0.20;;;11.50;95.90;;;;;;5026999;28;20057;-76
2023/11/08 10:19:39;;;;;;;1.52;0.38;;;11.40;95.60;;;;;;4995062;28;20721;-77
2023/11/08 10:22:20;;;;;;;2.35;0.20;;;11.60;95.90;;;;;;4983842;28;20054;-76
2023/11/08 10:24:57;;;;;;;0.85;0.17;;;11.70;95.60;;;;;;4997492;28;20834;-78
2023/11/08 10:27:26;;;;;;;1.77;0.20;;;11.80;95.10;;;;;;5003637;28;20053;-79
2023/11/08 10:30:13;;;;;;;1.88;0.10;;;12.00;96.00;;;;;;5030288;28;22192;-78
2023/11/08 10:32:43;;;;;;;3.10;0.10;;;11.90;95.20;;;;;;5011766;28;20053;-77
2023/11/08 10:35:18;;;;;;;1.33;0.20;;;12.20;95.10;;;;;;4995439;28;20076;-77
2023/11/08 10:37:48;;;;;;;2.05;0.30;;;12.00;94.60;;;;;;5002432;28;20053;-78
2023/11/08 10:40:21;;;;;;;1.05;0.10;;;11.80;95.00;;;;;;5004697;28;20053;-78
2023/11/08 10:42:55;;;;;;;2.30;0.20;;;11.80;95.50;;;;;;4994486;28;20088;-78
2023/11/08 10:45:25;;;;;;;2.70;0.28;;;11.70;95.20;;;;;;5013919;28;20046;-77
2023/11/08 10:47:57;;;;;;;1.52;0.20;;;11.70;95.60;;;;;;5012719;28;20069;-78
2023/11/08 10:50:27;;;;;;;1.33;0.10;;;11.70;95.30;;;;;;4996078;28;20050;-78
2023/11/08 10:52:57;;;;;;;1.60;0.22;;;11.90;94.80;;;;;;4996772;28;20176;-77
2023/11/08 10:55:26;;;;;;;6.85;4.85;;;11.90;94.60;;;;;;5041630;28;20456;-77
2023/11/08 10:58:01;;;;;;;0.90;0.28;;;12.20;94.60;;;;;;5026174;28;20072;-78
2023/11/08 11:00:34;;;;;;;12.63;7.57;;;12.20;94.10;;;;;;5002128;28;20053;-78
2023/11/08 11:03:10;;;;;;;2.72;0.55;;;12.20;94.00;;;;;;5018968;28;20148;-77
2023/11/08 11:05:45;;;;;;;8.73;5.20;;;12.20;93.20;;;;;;5012649;28;20475;-77
2023/11/08 11:08:19;;;;;;;0.98;0.20;;;12.10;93.20;;;;;;5023354;28;20069;-78
2023/11/08 11:10:50;;;;;;;2.60;0.40;;;12.00;92.90;;;;;;4985123;28;20119;-78
2023/11/08 11:13:26;;;;;;;1.95;0.20;;;11.90;92.70;;;;;;5016624;28;20276;-78
2023/11/08 11:16:03;;;;;;;1.45;0.30;;;12.20;92.90;;;;;;5010395;28;20057;-78
2023/11/08 11:18:38;;;;;;;2.88;0.20;;;12.40;93.00;;;;;;5016940;28;20092;-76
2023/11/08 11:21:16;;;;;;;2.38;0.10;;;12.40;92.00;;;;;;5015313;28;20059;-78
2023/11/08 11:23:44;;;;;;;1.02;0.10;;;12.40;91.60;;;;;;5013154;28;20559;-78
2023/11/08 11:26:37;;;;;;;3.72;0.35;;;12.60;91.80;;;;;;5006227;28;20052;-78
2023/11/08 11:29:16;;;;;;;1.13;0.10;;;12.80;92.10;;;;;;5016020;28;20087;-78
2023/11/08 11:31:46;;;;;;;0.75;0.10;;;12.50;90.60;;;;;;5011794;28;20057;-75
2023/11/08 11:34:43;;;;;;;0.50;0.10;;;12.30;91.00;;;;;;5014303;28;20126;-77
2023/11/08 11:37:14;;;;;;;1.13;0.10;;;12.20;91.30;;;;;;5025520;28;20103;-77
2023/11/08 11:39:45;;;;;;;0.45;0.10;;;12.40;91.30;;;;;;4990085;28;20042;-77
2023/11/08 11:42:17;;;;;;;0.10;0.00;;;12.60;91.20;;;;;;5001491;28;20049;-78
2023/11/08 11:44:56;;;;;;;0.20;0.00;;;12.50;90.40;;;;;;4994272;28;20046;-78
2023/11/08 11:47:29;;;;;;;1.60;0.10;;;12.50;90.10;;;;;;4998814;28;20259;-75
2023/11/08 11:50:01;;;;;;;1.17;0.10;;;12.30;90.20;;;;;;5001785;28;20095;-75
2023/11/08 11:52:31;;;;;;;0.70;0.10;;;12.10;90.00;;;;;;4981487;28;20050;-76
2023/11/08 11:55:01;;;;;;;1.00;0.10;;;11.90;90.00;;;;;;5005818;28;20721;-77
2023/11/08 11:57:32;;;;;;;1.15;0.20;;;11.80;90.40;;;;;;4999327;28;20061;-76
2023/11/08 12:00:04;;;;;;;4.88;1.17;;;12.00;90.70;;;;;;4991204;28;20550;-76
2023/11/08 12:02:34;;;;;;;3.13;0.40;;;12.10;91.30;;;;;;4976493;28;20413;-75
2023/11/08 12:05:07;;;;;;;2.40;0.20;;;12.00;90.70;;;;;;5008080;28;20094;-75
2023/11/08 12:07:37;;;;;;;2.08;0.15;;;12.00;90.60;;;;;;4993299;28;20123;-75
2023/11/08 12:10:10;;;;;;;1.13;0.10;;;11.90;90.20;;;;;;4988562;28;20175;-76
2023/11/08 12:12:44;;;;;;;1.10;0.20;;;11.80;90.40;;;;;;4988625;28;20041;-76
2023/11/08 12:15:15;;;;;;;3.47;0.40;;;11.80;91.30;;;;;;4991227;28;20099;-76
2023/11/08 12:17:49;;;;;;;0.65;0.15;;;11.90;90.80;;;;;;5004226;28;20832;-75
2023/11/08 12:20:32;;;;;;;2.80;0.20;;;11.90;90.60;;;;;;5002209;28;20052;-74
2023/11/08 12:23:01;;;;;;;0.85;0.10;;;11.80;90.50;;;;;;4989840;28;20056;-76
2023/11/08 12:25:31;;;;;;;1.50;0.20;;;11.70;91.10;;;;;;5024810;28;20048;-74
2023/11/08 12:28:05;;;;;;;2.75;0.20;;;11.70;91.40;;;;;;5002029;28;20088;-76
2023/11/08 12:30:39;;;;;;;2.53;0.10;;;11.70;90.50;;;;;;4997098;28;20136;-75
2023/11/08 12:33:09;;;;;;;1.00;0.10;;;11.70;90.60;;;;;;4986503;28;20057;-75
2023/11/08 12:35:37;;;;;;;5.38;1.13;;;11.90;90.40;;;;;;4978821;28;22321;-75
2023/11/08 12:38:07;;;;;;;1.35;0.10;;;12.00;90.10;;;;;;4982661;28;20928;-76
2023/11/08 12:40:35;;;;;;;2.15;0.28;;;12.10;88.60;;;;;;4987220;28;20103;-76
2023/11/08 12:43:14;;;;;;;0.90;0.22;;;12.20;89.10;;;;;;4984498;28;20085;-75
2023/11/08 12:46:05;;;;;;;0.70;0.10;;;12.30;88.50;;;;;;4977833;28;20056;-76
2023/11/08 12:48:57;;;;;;;0.82;0.10;;;12.30;88.30;;;;;;4977942;28;20050;-74
2023/11/08 12:51:33;;;;;;;1.73;0.10;;;12.40;88.80;;;;;;4966442;28;20054;-75
2023/11/08 12:54:02;;;;;;;2.30;0.10;;;12.30;87.80;;;;;;5007951;28;20057;-75
2023/11/08 12:56:38;;;;;;;3.22;0.10;;;12.30;88.00;;;;;;4979350;28;20128;-77
2023/11/08 12:59:15;;;;;;;2.65;0.10;;;12.20;87.20;;;;;;4985376;28;20721;-77
2023/11/08 13:01:46;;;;;;;4.05;0.90;;;12.30;87.30;;;;;;4997584;28;20060;-77